Time;durP1;ratioP1;P1;durP2;ratioP2;P2;SDS_P1;SDS_P2;PMS_P1;PMS_P2;Temp;Humidity;BMP_temperature;BMP_pressure;BME280_temperature;BME280_humidity;BME280_pressure;Samples;Min_cycle;Max_cycle;Signal;HPM_P1;HPM_P2
2023/05/27 00:00:07;;;;;;;13.00;3.73;;;;;;;;;;5053851;28;20229;-52
2023/05/27 00:02:33;;;;;;;11.70;4.03;;;;;;;;;;5053665;28;20471;-52
2023/05/27 00:04:59;;;;;;;14.07;5.03;;;;;;;;;;5063699;28;20246;-52
2023/05/27 00:07:25;;;;;;;8.77;3.93;;;;;;;;;;5073548;28;20239;-52
2023/05/27 00:09:51;;;;;;;11.37;4.67;;;;;;;;;;5073990;28;20200;-52
2023/05/27 00:12:18;;;;;;;10.90;4.20;;;;;;;;;;5072917;28;20215;-52
2023/05/27 00:14:45;;;;;;;9.37;3.57;;;;;;;;;;5073621;28;20327;-52
2023/05/27 00:17:13;;;;;;;9.00;4.10;;;;;;;;;;5073430;28;20271;-52
2023/05/27 00:19:39;;;;;;;10.60;4.43;;;;;;;;;;5073532;28;20230;-52
2023/05/27 00:22:05;;;;;;;9.80;3.70;;;;;;;;;;5073258;28;20568;-52
2023/05/27 00:24:31;;;;;;;11.07;4.60;;;;;;;;;;5072982;28;20684;-52
2023/05/27 00:26:57;;;;;;;11.53;3.87;;;;;;;;;;5073287;28;20195;-52
2023/05/27 00:29:25;;;;;;;10.90;4.47;;;;;;;;;;5073292;28;20211;-53
2023/05/27 00:31:50;;;;;;;12.80;3.77;;;;;;;;;;5073431;28;20210;-53
2023/05/27 00:34:16;;;;;;;9.87;4.00;;;;;;;;;;5073044;28;20577;-53
2023/05/27 00:36:42;;;;;;;13.50;4.50;;;;;;;;;;5069875;28;20200;-49
2023/05/27 00:39:09;;;;;;;10.80;3.77;;;;;;;;;;5073215;28;20204;-52
2023/05/27 00:41:35;;;;;;;11.93;4.17;;;;;;;;;;5073164;28;20199;-53
2023/05/27 00:44:02;;;;;;;15.57;4.60;;;;;;;;;;5073224;28;20202;-52
2023/05/27 00:46:29;;;;;;;13.13;4.57;;;;;;;;;;5072924;28;20212;-52
2023/05/27 00:48:55;;;;;;;9.77;4.20;;;;;;;;;;5073014;28;20253;-52
2023/05/27 00:51:21;;;;;;;8.93;3.50;;;;;;;;;;5073042;28;20565;-52
2023/05/27 00:53:48;;;;;;;9.20;3.90;;;;;;;;;;5072915;28;20195;-52
2023/05/27 00:56:15;;;;;;;8.70;4.10;;;;;;;;;;5072841;28;20287;-53
2023/05/27 00:58:41;;;;;;;9.37;3.37;;;;;;;;;;5072763;28;20203;-53
2023/05/27 01:01:07;;;;;;;10.77;4.10;;;;;;;;;;5072726;28;20689;-52
2023/05/27 01:03:35;;;;;;;11.30;4.13;;;;;;;;;;5072596;28;20199;-52
2023/05/27 01:06:04;;;;;;;8.33;3.73;;;;;;;;;;5072694;28;20297;-52
2023/05/27 01:08:34;;;;;;;10.10;4.00;;;;;;;;;;5072495;28;20226;-52
2023/05/27 01:11:00;;;;;;;8.53;3.73;;;;;;;;;;5072632;28;20367;-52
2023/05/27 01:13:30;;;;;;;12.13;4.30;;;;;;;;;;5072420;28;20199;-53
2023/05/27 01:15:57;;;;;;;10.63;3.90;;;;;;;;;;5072357;28;20223;-52
2023/05/27 01:18:24;;;;;;;11.03;4.00;;;;;;;;;;5072419;28;20317;-52
2023/05/27 01:20:53;;;;;;;10.73;4.27;;;;;;;;;;5072794;28;20253;-52
2023/05/27 01:23:21;;;;;;;10.60;4.13;;;;;;;;;;5071678;28;20270;-52
2023/05/27 01:25:47;;;;;;;7.83;4.00;;;;;;;;;;5072302;28;20325;-52
2023/05/27 01:28:13;;;;;;;8.77;3.47;;;;;;;;;;5072292;28;20199;-52
2023/05/27 01:30:39;;;;;;;14.07;5.27;;;;;;;;;;5072055;28;20695;-53
2023/05/27 01:33:08;;;;;;;11.10;4.50;;;;;;;;;;5072347;28;20247;-52
2023/05/27 01:35:39;;;;;;;8.60;3.50;;;;;;;;;;5072085;28;20547;-52
2023/05/27 01:38:06;;;;;;;9.93;3.77;;;;;;;;;;5072324;28;20199;-52
2023/05/27 01:40:34;;;;;;;9.60;3.97;;;;;;;;;;5071961;28;20191;-53
2023/05/27 01:43:00;;;;;;;9.93;4.20;;;;;;;;;;5072124;28;20279;-54
2023/05/27 01:45:26;;;;;;;11.47;4.50;;;;;;;;;;5071861;28;20248;-53
2023/05/27 01:47:52;;;;;;;9.33;4.30;;;;;;;;;;5071925;28;20658;-53
2023/05/27 01:50:18;;;;;;;9.57;4.03;;;;;;;;;;5071999;28;20195;-53
2023/05/27 01:52:45;;;;;;;12.93;4.17;;;;;;;;;;5071775;28;20196;-53
2023/05/27 01:55:11;;;;;;;8.83;4.00;;;;;;;;;;5071836;28;20239;-52
2023/05/27 01:57:39;;;;;;;11.27;4.10;;;;;;;;;;5071766;28;20669;-53
2023/05/27 02:00:07;;;;;;;11.27;4.40;;;;;;;;;;5071933;28;20205;-53
2023/05/27 02:02:33;;;;;;;7.47;4.17;;;;;;;;;;5071720;28;20741;-53
2023/05/27 02:04:59;;;;;;;8.93;4.30;;;;;;;;;;5071627;28;20215;-53
2023/05/27 02:07:26;;;;;;;9.83;4.17;;;;;;;;;;5071838;28;20668;-53
2023/05/27 02:09:52;;;;;;;12.07;4.23;;;;;;;;;;5071788;28;20199;-53
2023/05/27 02:12:18;;;;;;;10.07;4.37;;;;;;;;;;5071786;28;20204;-52
2023/05/27 02:14:46;;;;;;;10.33;4.23;;;;;;;;;;5071457;28;20223;-53
2023/05/27 02:17:14;;;;;;;11.47;4.07;;;;;;;;;;5071543;28;20207;-53
2023/05/27 02:19:40;;;;;;;12.63;4.10;;;;;;;;;;5071579;28;20207;-53
2023/05/27 02:22:06;;;;;;;8.93;3.83;;;;;;;;;;5071482;28;20680;-52
2023/05/27 02:24:32;;;;;;;9.60;3.83;;;;;;;;;;5071417;28;20191;-53
2023/05/27 02:26:58;;;;;;;8.67;4.40;;;;;;;;;;5071619;28;20214;-52
2023/05/27 02:29:24;;;;;;;11.40;4.30;;;;;;;;;;5071369;28;20733;-52
2023/05/27 02:31:51;;;;;;;7.73;3.80;;;;;;;;;;5071495;28;20294;-51
2023/05/27 02:34:17;;;;;;;9.43;4.20;;;;;;;;;;5071537;28;20219;-51
2023/05/27 02:36:43;;;;;;;13.53;4.53;;;;;;;;;;5074956;28;20599;-53
2023/05/27 02:39:10;;;;;;;10.33;4.23;;;;;;;;;;5075512;28;20195;-52
2023/05/27 02:41:36;;;;;;;11.27;4.20;;;;;;;;;;5075640;28;20277;-51
2023/05/27 02:44:02;;;;;;;8.77;4.17;;;;;;;;;;5075472;28;20209;-52
2023/05/27 02:46:28;;;;;;;8.70;4.33;;;;;;;;;;5075253;28;20203;-52
2023/05/27 02:48:55;;;;;;;9.67;4.70;;;;;;;;;;5075382;28;20199;-53
2023/05/27 02:51:22;;;;;;;8.50;4.37;;;;;;;;;;5075446;28;20203;-52
2023/05/27 02:53:48;;;;;;;9.53;4.40;;;;;;;;;;5075157;28;20206;-52
2023/05/27 02:56:14;;;;;;;10.03;4.63;;;;;;;;;;5075176;28;20253;-53
2023/05/27 02:58:40;;;;;;;7.87;3.73;;;;;;;;;;5075038;28;20227;-52
2023/05/27 03:01:06;;;;;;;9.40;3.80;;;;;;;;;;5075223;28;20226;-53
2023/05/27 03:03:32;;;;;;;6.73;3.70;;;;;;;;;;5074923;28;20688;-52
2023/05/27 03:06:00;;;;;;;8.53;3.93;;;;;;;;;;5075014;28;20184;-53
2023/05/27 03:08:26;;;;;;;9.37;3.90;;;;;;;;;;5074890;28;20195;-52
2023/05/27 03:10:52;;;;;;;6.20;3.70;;;;;;;;;;5074875;28;20534;-53
2023/05/27 03:13:18;;;;;;;10.47;4.13;;;;;;;;;;5074976;28;20221;-53
2023/05/27 03:15:44;;;;;;;7.10;3.50;;;;;;;;;;5074588;28;20227;-53
2023/05/27 03:18:10;;;;;;;9.13;4.33;;;;;;;;;;5074263;28;20199;-52
2023/05/27 03:20:36;;;;;;;7.30;4.23;;;;;;;;;;5074092;28;20206;-52
2023/05/27 03:23:03;;;;;;;8.07;3.83;;;;;;;;;;5074457;28;20239;-52
2023/05/27 03:25:29;;;;;;;10.80;4.63;;;;;;;;;;5074581;28;20206;-52
2023/05/27 03:27:55;;;;;;;8.93;4.73;;;;;;;;;;5074672;28;20196;-52
2023/05/27 03:30:21;;;;;;;7.10;4.00;;;;;;;;;;5074221;28;20253;-52
2023/05/27 03:32:47;;;;;;;9.63;4.40;;;;;;;;;;5074427;28;20256;-53
2023/05/27 03:35:13;;;;;;;10.70;4.53;;;;;;;;;;5074393;28;20234;-52
2023/05/27 03:37:39;;;;;;;8.43;4.00;;;;;;;;;;5074238;28;20200;-53
2023/05/27 03:40:08;;;;;;;6.30;3.80;;;;;;;;;;5074574;28;20302;-53
2023/05/27 03:42:35;;;;;;;9.60;4.88;;;;;;;;;;5073019;28;20413;-53
2023/05/27 03:45:01;;;;;;;7.87;3.63;;;;;;;;;;5074282;28;20192;-52
2023/05/27 03:47:27;;;;;;;9.20;4.10;;;;;;;;;;5073764;28;20385;-53
2023/05/27 03:49:53;;;;;;;8.37;3.87;;;;;;;;;;5074217;28;20219;-52
2023/05/27 03:52:19;;;;;;;7.53;4.03;;;;;;;;;;5074287;28;20680;-53
2023/05/27 03:54:45;;;;;;;7.40;4.40;;;;;;;;;;5073978;28;20212;-53
2023/05/27 03:57:12;;;;;;;10.53;4.37;;;;;;;;;;5074042;28;20199;-53
2023/05/27 03:59:38;;;;;;;10.47;4.50;;;;;;;;;;5073933;28;20303;-52
2023/05/27 04:02:04;;;;;;;8.37;4.60;;;;;;;;;;5072851;28;20219;-53
2023/05/27 04:04:30;;;;;;;12.93;5.23;;;;;;;;;;5073807;28;20265;-51
2023/05/27 04:06:56;;;;;;;11.40;5.17;;;;;;;;;;5073811;28;20198;-52
2023/05/27 04:09:22;;;;;;;8.03;4.40;;;;;;;;;;5074212;28;20602;-52
2023/05/27 04:11:48;;;;;;;6.60;4.43;;;;;;;;;;5073763;28;20195;-53
2023/05/27 04:14:16;;;;;;;8.07;4.57;;;;;;;;;;5073732;28;20238;-53
2023/05/27 04:16:42;;;;;;;6.40;4.50;;;;;;;;;;5073580;28;20207;-52
2023/05/27 04:19:09;;;;;;;7.97;4.13;;;;;;;;;;5073637;28;20661;-52
2023/05/27 04:21:36;;;;;;;7.40;4.30;;;;;;;;;;5073642;28;20199;-53
2023/05/27 04:24:02;;;;;;;11.63;4.80;;;;;;;;;;5073365;28;20251;-52
2023/05/27 04:26:28;;;;;;;10.40;4.60;;;;;;;;;;5073517;28;20279;-52
2023/05/27 04:28:54;;;;;;;8.80;4.47;;;;;;;;;;5073332;28;20279;-53
2023/05/27 04:31:21;;;;;;;9.50;4.40;;;;;;;;;;5073483;28;20672;-53
2023/05/27 04:33:47;;;;;;;9.47;4.30;;;;;;;;;;5073271;28;20200;-53
2023/05/27 04:36:17;;;;;;;8.07;4.17;;;;;;;;;;5073226;28;20230;-53
2023/05/27 04:38:45;;;;;;;7.03;4.50;;;;;;;;;;5073200;28;20199;-54
2023/05/27 04:41:11;;;;;;;8.50;3.97;;;;;;;;;;5073217;28;20199;-53
2023/05/27 04:43:38;;;;;;;7.63;4.37;;;;;;;;;;5073150;28;20241;-52
2023/05/27 04:46:04;;;;;;;12.83;4.80;;;;;;;;;;5073083;28;20646;-53
2023/05/27 04:48:31;;;;;;;6.93;3.83;;;;;;;;;;5073099;28;20286;-53
2023/05/27 04:50:57;;;;;;;7.97;4.50;;;;;;;;;;5072883;28;20293;-53
2023/05/27 04:53:24;;;;;;;11.17;4.53;;;;;;;;;;5072956;28;20292;-53
2023/05/27 04:55:51;;;;;;;7.23;4.43;;;;;;;;;;5072858;28;20693;-53
2023/05/27 04:58:17;;;;;;;7.03;4.47;;;;;;;;;;5072078;28;20282;-53
2023/05/27 05:00:57;;;;;;;9.93;4.57;;;;;;;;;;5072641;28;20302;-52
2023/05/27 05:03:36;;;;;;;7.20;4.60;;;;;;;;;;5072885;28;20199;-53
2023/05/27 05:06:03;;;;;;;11.67;5.07;;;;;;;;;;5072839;28;20199;-54
2023/05/27 05:08:30;;;;;;;9.53;4.50;;;;;;;;;;5072932;28;20557;-54
2023/05/27 05:10:56;;;;;;;9.73;4.30;;;;;;;;;;5072517;28;20202;-53
2023/05/27 05:13:22;;;;;;;16.10;5.73;;;;;;;;;;5072744;28;20207;-54
2023/05/27 05:15:48;;;;;;;9.43;4.20;;;;;;;;;;5072353;28;20234;-53
2023/05/27 05:18:14;;;;;;;10.33;5.07;;;;;;;;;;5072436;28;20670;-54
2023/05/27 05:20:40;;;;;;;14.03;5.17;;;;;;;;;;5072293;28;20658;-54
2023/05/27 05:23:08;;;;;;;10.93;4.30;;;;;;;;;;5072372;28;20242;-54
2023/05/27 05:25:37;;;;;;;10.80;4.70;;;;;;;;;;5072481;28;20218;-54
2023/05/27 05:28:03;;;;;;;12.53;5.33;;;;;;;;;;5072355;28;20681;-54
2023/05/27 05:30:30;;;;;;;8.97;4.30;;;;;;;;;;5072189;28;20206;-53
2023/05/27 05:32:56;;;;;;;13.27;4.60;;;;;;;;;;5072129;28;20199;-53
2023/05/27 05:35:22;;;;;;;7.60;4.53;;;;;;;;;;5072188;28;20227;-53
2023/05/27 05:37:49;;;;;;;10.47;4.67;;;;;;;;;;5072163;28;20213;-52
2023/05/27 05:40:16;;;;;;;12.23;5.27;;;;;;;;;;5072125;28;20725;-53
2023/05/27 05:42:42;;;;;;;10.37;4.80;;;;;;;;;;5072024;28;20213;-53
2023/05/27 05:45:08;;;;;;;12.87;5.37;;;;;;;;;;5072225;28;20188;-54
2023/05/27 05:47:34;;;;;;;14.20;5.00;;;;;;;;;;5072193;28;20246;-54
2023/05/27 05:50:00;;;;;;;11.20;4.97;;;;;;;;;;5071884;28;20261;-52
2023/05/27 05:52:26;;;;;;;10.67;4.97;;;;;;;;;;5071904;28;20597;-54
2023/05/27 05:54:52;;;;;;;9.10;4.57;;;;;;;;;;5071787;28;20219;-54
2023/05/27 05:57:20;;;;;;;11.20;5.17;;;;;;;;;;5072010;28;20672;-54
2023/05/27 05:59:46;;;;;;;13.73;4.80;;;;;;;;;;5071738;28;20569;-55
2023/05/27 06:02:12;;;;;;;10.37;5.13;;;;;;;;;;5071672;28;20187;-54
2023/05/27 06:04:38;;;;;;;9.87;4.93;;;;;;;;;;5071757;28;20208;-55
2023/05/27 06:07:04;;;;;;;13.07;5.13;;;;;;;;;;5071714;28;20222;-55
2023/05/27 06:09:30;;;;;;;13.37;4.97;;;;;;;;;;5071612;28;20222;-52
2023/05/27 06:11:56;;;;;;;11.10;4.67;;;;;;;;;;5071606;28;20634;-52
2023/05/27 06:14:23;;;;;;;16.63;5.20;;;;;;;;;;5071535;28;20256;-55
2023/05/27 06:16:49;;;;;;;11.40;4.50;;;;;;;;;;5071715;28;20214;-52
2023/05/27 06:19:15;;;;;;;10.60;4.70;;;;;;;;;;5071507;28;20203;-53
2023/05/27 06:21:41;;;;;;;12.00;5.23;;;;;;;;;;5071331;28;20313;-55
2023/05/27 06:24:07;;;;;;;10.43;4.43;;;;;;;;;;5071489;28;20269;-52
2023/05/27 06:26:33;;;;;;;10.97;4.73;;;;;;;;;;5071646;28;20203;-52
2023/05/27 06:28:59;;;;;;;11.27;4.63;;;;;;;;;;5071435;28;20215;-54
2023/05/27 06:31:27;;;;;;;13.27;4.70;;;;;;;;;;5071185;28;20234;-52
2023/05/27 06:33:53;;;;;;;10.47;4.40;;;;;;;;;;5071440;28;20199;-53
2023/05/27 06:36:19;;;;;;;9.37;4.40;;;;;;;;;;5071376;28;20234;-53
2023/05/27 06:38:45;;;;;;;12.63;4.80;;;;;;;;;;5071402;28;20199;-53
2023/05/27 06:41:11;;;;;;;9.17;4.07;;;;;;;;;;5071919;28;20203;-53
2023/05/27 06:43:37;;;;;;;8.70;4.20;;;;;;;;;;5071833;28;20203;-53
2023/05/27 06:46:03;;;;;;;12.80;4.63;;;;;;;;;;5071195;28;20183;-53
2023/05/27 06:48:30;;;;;;;10.68;4.72;;;;;;;;;;5070206;28;20392;-53
2023/05/27 06:50:56;;;;;;;9.93;4.43;;;;;;;;;;5071402;28;20278;-54
2023/05/27 06:53:22;;;;;;;13.17;5.07;;;;;;;;;;5071529;28;20217;-53
2023/05/27 06:55:48;;;;;;;7.70;4.00;;;;;;;;;;5071232;28;20403;-54
2023/05/27 06:58:14;;;;;;;8.20;4.00;;;;;;;;;;5071324;28;20230;-54
2023/05/27 07:00:40;;;;;;;11.77;4.60;;;;;;;;;;5071221;28;20243;-54
2023/05/27 07:03:06;;;;;;;13.70;4.33;;;;;;;;;;5071241;28;20199;-53
2023/05/27 07:05:34;;;;;;;10.27;3.93;;;;;;;;;;5071282;28;20212;-53
2023/05/27 07:08:00;;;;;;;13.90;4.50;;;;;;;;;;5071119;28;20204;-53
2023/05/27 07:10:26;;;;;;;13.07;4.90;;;;;;;;;;5071188;28;20192;-53
2023/05/27 07:12:52;;;;;;;11.57;5.30;;;;;;;;;;5071163;28;20770;-53
2023/05/27 07:15:18;;;;;;;9.63;4.33;;;;;;;;;;5071053;28;20227;-52
2023/05/27 07:17:43;;;;;;;12.37;4.27;;;;;;;;;;5071135;28;20211;-52
2023/05/27 07:20:10;;;;;;;9.67;4.33;;;;;;;;;;5070953;28;20195;-53
2023/05/27 07:22:37;;;;;;;9.20;4.23;;;;;;;;;;5073963;28;20239;-52
2023/05/27 07:25:04;;;;;;;10.63;4.20;;;;;;;;;;5074652;28;20561;-52
2023/05/27 07:27:30;;;;;;;12.40;4.27;;;;;;;;;;5074630;28;20561;-52
2023/05/27 07:29:56;;;;;;;9.23;3.87;;;;;;;;;;5074589;28;20203;-52
2023/05/27 07:32:22;;;;;;;7.93;4.00;;;;;;;;;;5074615;28;20282;-52
2023/05/27 07:34:48;;;;;;;9.70;4.13;;;;;;;;;;5074439;28;20216;-52
2023/05/27 07:37:14;;;;;;;9.27;3.53;;;;;;;;;;5074368;28;20226;-53
2023/05/27 07:39:41;;;;;;;13.60;4.50;;;;;;;;;;5074272;28;20620;-53
2023/05/27 07:42:07;;;;;;;11.67;4.40;;;;;;;;;;5074543;28;20211;-53
2023/05/27 07:44:33;;;;;;;11.80;4.50;;;;;;;;;;5074332;28;20208;-53
2023/05/27 07:47:00;;;;;;;12.17;4.07;;;;;;;;;;5074251;28;20310;-53
2023/05/27 07:49:26;;;;;;;9.60;4.07;;;;;;;;;;5074156;28;20545;-54
2023/05/27 07:51:52;;;;;;;12.47;4.47;;;;;;;;;;5074186;28;20670;-53
2023/05/27 07:54:18;;;;;;;10.77;4.30;;;;;;;;;;5074456;28;20201;-53
2023/05/27 07:56:45;;;;;;;11.13;3.63;;;;;;;;;;5074070;28;20196;-53
2023/05/27 07:59:11;;;;;;;8.87;4.10;;;;;;;;;;5073891;28;20196;-55
2023/05/27 08:01:37;;;;;;;9.33;4.10;;;;;;;;;;5074110;28;20206;-52
2023/05/27 08:04:03;;;;;;;9.33;4.27;;;;;;;;;;5073921;28;20223;-51
2023/05/27 08:06:29;;;;;;;17.20;4.90;;;;;;;;;;5073898;28;20214;-51
2023/05/27 08:08:55;;;;;;;9.80;4.40;;;;;;;;;;5073642;28;20203;-52
2023/05/27 08:11:22;;;;;;;11.37;4.27;;;;;;;;;;5073854;28;20225;-50
2023/05/27 08:13:49;;;;;;;10.73;3.97;;;;;;;;;;5073862;28;20195;-50
2023/05/27 08:16:15;;;;;;;11.63;4.50;;;;;;;;;;5073547;28;20225;-52
2023/05/27 08:18:41;;;;;;;10.20;4.37;;;;;;;;;;5073534;28;20294;-51
2023/05/27 08:21:07;;;;;;;8.80;3.73;;;;;;;;;;5073858;28;20209;-52
2023/05/27 08:23:33;;;;;;;12.33;3.97;;;;;;;;;;5073723;28;20234;-52
2023/05/27 08:25:59;;;;;;;7.73;3.60;;;;;;;;;;5073722;28;20277;-50
2023/05/27 08:28:25;;;;;;;6.03;3.17;;;;;;;;;;5071661;28;20285;-51
2023/05/27 08:30:52;;;;;;;9.03;4.23;;;;;;;;;;5073261;28;20223;-51
2023/05/27 08:33:18;;;;;;;11.93;4.70;;;;;;;;;;5073211;28;20203;-52
2023/05/27 08:35:44;;;;;;;8.93;3.90;;;;;;;;;;5072902;28;20351;-51
2023/05/27 08:38:10;;;;;;;8.07;3.50;;;;;;;;;;5072967;28;20199;-51
2023/05/27 08:40:36;;;;;;;7.53;3.60;;;;;;;;;;5073126;28;20212;-52
2023/05/27 08:43:03;;;;;;;9.27;4.03;;;;;;;;;;5072876;28;20630;-52
2023/05/27 08:45:30;;;;;;;7.40;3.63;;;;;;;;;;5072932;28;20197;-51
2023/05/27 08:47:57;;;;;;;12.80;4.30;;;;;;;;;;5073018;28;20203;-51
2023/05/27 08:50:23;;;;;;;9.67;3.93;;;;;;;;;;5073097;28;20200;-51
2023/05/27 08:52:52;;;;;;;7.33;3.10;;;;;;;;;;5073089;28;20203;-51
2023/05/27 08:55:23;;;;;;;7.47;3.20;;;;;;;;;;5072734;28;20780;-52
2023/05/27 08:57:51;;;;;;;8.57;3.40;;;;;;;;;;5072960;28;20199;-52
2023/05/27 09:00:17;;;;;;;10.53;3.70;;;;;;;;;;5072512;28;20203;-51
2023/05/27 09:02:43;;;;;;;11.10;3.07;;;;;;;;;;5072751;28;20195;-51
2023/05/27 09:05:11;;;;;;;7.77;3.10;;;;;;;;;;5072430;28;20211;-52
2023/05/27 09:07:37;;;;;;;9.07;3.33;;;;;;;;;;5072559;28;20199;-53
2023/05/27 09:10:06;;;;;;;6.77;3.17;;;;;;;;;;5072462;28;20289;-52
2023/05/27 09:12:32;;;;;;;6.47;3.17;;;;;;;;;;5072475;28;20430;-52
2023/05/27 09:14:58;;;;;;;6.17;2.97;;;;;;;;;;5072372;28;20231;-53
2023/05/27 09:17:24;;;;;;;6.50;3.53;;;;;;;;;;5072433;28;20219;-52
2023/05/27 09:19:50;;;;;;;7.00;2.83;;;;;;;;;;5072491;28;20200;-52
2023/05/27 09:22:22;;;;;;;7.63;3.17;;;;;;;;;;5071621;28;20193;-52
2023/05/27 09:24:48;;;;;;;8.07;3.13;;;;;;;;;;5072505;28;20274;-53
2023/05/27 09:27:15;;;;;;;7.67;2.97;;;;;;;;;;5072196;28;20286;-53
2023/05/27 09:29:41;;;;;;;6.23;2.90;;;;;;;;;;5072047;28;20655;-53
2023/05/27 09:32:08;;;;;;;7.77;2.83;;;;;;;;;;5071880;28;20204;-52
2023/05/27 09:34:38;;;;;;;10.23;3.63;;;;;;;;;;5072155;28;20284;-53
2023/05/27 09:37:04;;;;;;;7.33;3.57;;;;;;;;;;5072088;28;20201;-52
2023/05/27 09:39:36;;;;;;;9.90;3.50;;;;;;;;;;5072085;28;20242;-52
2023/05/27 09:42:02;;;;;;;8.23;3.00;;;;;;;;;;5071971;28;20214;-51
2023/05/27 09:44:29;;;;;;;6.87;3.50;;;;;;;;;;5071470;28;20223;-51
2023/05/27 09:46:56;;;;;;;6.27;3.10;;;;;;;;;;5071988;28;20205;-52
2023/05/27 09:49:23;;;;;;;8.87;3.37;;;;;;;;;;5071967;28;20200;-52
2023/05/27 09:51:49;;;;;;;8.37;3.60;;;;;;;;;;5072038;28;20569;-53
2023/05/27 09:54:19;;;;;;;10.97;3.33;;;;;;;;;;5071586;28;20242;-52
2023/05/27 09:56:48;;;;;;;6.23;3.00;;;;;;;;;;5069786;28;20252;-53
2023/05/27 09:59:14;;;;;;;8.43;3.53;;;;;;;;;;5071456;28;20546;-52
2023/05/27 10:01:40;;;;;;;6.20;3.20;;;;;;;;;;5071575;28;20193;-52
2023/05/27 10:04:07;;;;;;;7.03;3.13;;;;;;;;;;5071477;28;20588;-52
2023/05/27 10:06:33;;;;;;;6.83;3.07;;;;;;;;;;5071624;28;20588;-52
2023/05/27 10:09:03;;;;;;;7.53;3.50;;;;;;;;;;5071471;28;20200;-52
2023/05/27 10:11:31;;;;;;;6.03;3.17;;;;;;;;;;5071532;28;20342;-52
2023/05/27 10:13:59;;;;;;;8.63;3.27;;;;;;;;;;5071442;28;20434;-51
2023/05/27 10:16:27;;;;;;;7.07;3.53;;;;;;;;;;5071264;28;20232;-52
2023/05/27 10:18:53;;;;;;;7.07;3.23;;;;;;;;;;5071488;28;20202;-52
2023/05/27 10:21:26;;;;;;;8.93;3.57;;;;;;;;;;5071470;28;20226;-51
2023/05/27 10:23:57;;;;;;;5.63;3.20;;;;;;;;;;5071325;28;20241;-52
2023/05/27 10:26:31;;;;;;;8.63;3.80;;;;;;;;;;5071301;28;20288;-51
2023/05/27 10:29:07;;;;;;;8.40;3.67;;;;;;;;;;5071345;28;20198;-52
2023/05/27 10:31:34;;;;;;;7.50;3.03;;;;;;;;;;5071416;28;20280;-53
2023/05/27 10:34:00;;;;;;;6.37;3.57;;;;;;;;;;5071530;28;20255;-52
2023/05/27 10:36:28;;;;;;;9.10;3.50;;;;;;;;;;5071064;28;20226;-52
2023/05/27 10:38:55;;;;;;;8.63;3.33;;;;;;;;;;5071098;28;20187;-52
2023/05/27 10:41:22;;;;;;;9.20;3.13;;;;;;;;;;5071201;28;20669;-52
2023/05/27 10:43:55;;;;;;;6.90;3.07;;;;;;;;;;5071618;28;20206;-52
2023/05/27 10:46:23;;;;;;;6.77;2.97;;;;;;;;;;5071298;28;20204;-53
2023/05/27 10:48:49;;;;;;;7.63;3.60;;;;;;;;;;5071394;28;20196;-52
2023/05/27 10:51:15;;;;;;;8.17;3.20;;;;;;;;;;5071227;28;20253;-52
2023/05/27 10:53:41;;;;;;;9.43;3.60;;;;;;;;;;5071149;28;20199;-52
2023/05/27 10:56:10;;;;;;;7.43;3.30;;;;;;;;;;5071934;28;20310;-52
2023/05/27 10:58:37;;;;;;;9.47;3.57;;;;;;;;;;5075505;28;20680;-51
2023/05/27 11:01:07;;;;;;;11.07;3.80;;;;;;;;;;5075552;28;20582;-52
2023/05/27 11:03:35;;;;;;;11.20;3.67;;;;;;;;;;5075316;28;20218;-52
2023/05/27 11:06:02;;;;;;;7.10;3.53;;;;;;;;;;5075235;28;20291;-53
2023/05/27 11:08:29;;;;;;;7.03;3.43;;;;;;;;;;5075193;28;20200;-52
2023/05/27 11:10:59;;;;;;;9.27;3.60;;;;;;;;;;5075219;28;20207;-55
2023/05/27 11:13:29;;;;;;;7.13;3.13;;;;;;;;;;5075049;28;20204;-51
2023/05/27 11:15:55;;;;;;;7.20;3.73;;;;;;;;;;5074956;28;20584;-52
2023/05/27 11:18:21;;;;;;;9.43;3.63;;;;;;;;;;5075048;28;20225;-52
2023/05/27 11:20:49;;;;;;;5.87;3.40;;;;;;;;;;5075192;28;20203;-52
2023/05/27 11:23:15;;;;;;;10.00;4.10;;;;;;;;;;5074713;28;20236;-53
2023/05/27 11:25:42;;;;;;;9.17;3.77;;;;;;;;;;5074848;28;20667;-52
2023/05/27 11:28:14;;;;;;;7.90;3.33;;;;;;;;;;5074885;28;20207;-53
2023/05/27 11:30:40;;;;;;;8.60;3.60;;;;;;;;;;5074906;28;20212;-52
2023/05/27 11:33:06;;;;;;;5.20;3.10;;;;;;;;;;5074721;28;20196;-52
2023/05/27 11:35:33;;;;;;;7.63;3.60;;;;;;;;;;5074594;28;20283;-52
2023/05/27 11:38:04;;;;;;;6.37;3.43;;;;;;;;;;5074595;28;20664;-52
2023/05/27 11:40:34;;;;;;;9.17;3.67;;;;;;;;;;5074621;28;20205;-52
2023/05/27 11:43:01;;;;;;;9.20;3.57;;;;;;;;;;5074644;28;20199;-51
2023/05/27 11:45:27;;;;;;;7.57;3.50;;;;;;;;;;5074418;28;20219;-52
2023/05/27 11:47:54;;;;;;;6.57;3.20;;;;;;;;;;5074581;28;20751;-53
2023/05/27 11:50:20;;;;;;;6.23;3.47;;;;;;;;;;5074481;28;20202;-52
2023/05/27 11:52:51;;;;;;;6.03;3.60;;;;;;;;;;5074489;28;20228;-52
2023/05/27 11:55:18;;;;;;;9.40;3.53;;;;;;;;;;5074047;28;20275;-52
2023/05/27 11:57:44;;;;;;;8.80;3.37;;;;;;;;;;5072168;28;20449;-52
2023/05/27 12:00:11;;;;;;;10.30;3.97;;;;;;;;;;5073565;28;20198;-52
2023/05/27 12:02:37;;;;;;;7.00;3.67;;;;;;;;;;5073971;28;20199;-52
2023/05/27 12:05:06;;;;;;;8.37;3.53;;;;;;;;;;5073837;28;20216;-52
2023/05/27 12:07:32;;;;;;;7.43;3.43;;;;;;;;;;5073124;28;20237;-52
2023/05/27 12:09:58;;;;;;;7.20;3.47;;;;;;;;;;5073585;28;20699;-53
2023/05/27 12:12:25;;;;;;;7.70;3.70;;;;;;;;;;5073471;28;20204;-52
2023/05/27 12:14:51;;;;;;;8.07;3.43;;;;;;;;;;5073409;28;20205;-52
2023/05/27 12:17:17;;;;;;;6.20;3.07;;;;;;;;;;5073200;28;20212;-52
2023/05/27 12:19:43;;;;;;;6.27;3.10;;;;;;;;;;5073528;28;20194;-52
2023/05/27 12:22:09;;;;;;;7.00;3.40;;;;;;;;;;5073037;28;20569;-52
2023/05/27 12:24:35;;;;;;;7.13;3.90;;;;;;;;;;5073002;28;20210;-52
2023/05/27 12:27:02;;;;;;;7.80;3.57;;;;;;;;;;5073333;28;20198;-52
2023/05/27 12:29:30;;;;;;;6.33;3.10;;;;;;;;;;5073369;28;20267;-53
2023/05/27 12:31:56;;;;;;;4.57;2.73;;;;;;;;;;5073250;28;20662;-52
2023/05/27 12:34:23;;;;;;;5.30;2.70;;;;;;;;;;5073247;28;20607;-52
2023/05/27 12:36:49;;;;;;;6.30;3.40;;;;;;;;;;5073040;28;20222;-52
2023/05/27 12:39:15;;;;;;;6.33;3.13;;;;;;;;;;5070788;28;20661;-53
2023/05/27 12:41:42;;;;;;;8.87;3.70;;;;;;;;;;5073373;28;20206;-52
2023/05/27 12:44:08;;;;;;;4.80;2.80;;;;;;;;;;5073162;28;20194;-53
2023/05/27 12:46:35;;;;;;;7.57;3.53;;;;;;;;;;5073181;28;20672;-53
2023/05/27 12:49:01;;;;;;;6.53;3.47;;;;;;;;;;5073101;28;20191;-52
2023/05/27 12:51:27;;;;;;;5.40;3.20;;;;;;;;;;5072859;28;20567;-52
2023/05/27 12:53:53;;;;;;;6.73;3.37;;;;;;;;;;5072550;28;20206;-53
2023/05/27 12:56:19;;;;;;;7.50;3.83;;;;;;;;;;5072892;28;20310;-52
2023/05/27 12:58:45;;;;;;;7.77;3.23;;;;;;;;;;5072936;28;20543;-53
2023/05/27 13:01:11;;;;;;;8.13;3.57;;;;;;;;;;5072652;28;20189;-54
2023/05/27 13:03:39;;;;;;;5.70;3.20;;;;;;;;;;5072709;28;20198;-52
2023/05/27 13:06:05;;;;;;;5.70;3.03;;;;;;;;;;5072823;28;20252;-53
2023/05/27 13:08:31;;;;;;;8.33;3.50;;;;;;;;;;5072530;28;20694;-51
2023/05/27 13:10:57;;;;;;;7.00;3.20;;;;;;;;;;5072822;28;20229;-52
2023/05/27 13:13:23;;;;;;;5.53;3.23;;;;;;;;;;5072457;28;20232;-53
2023/05/27 13:15:49;;;;;;;5.37;3.10;;;;;;;;;;5072664;28;20287;-53
2023/05/27 13:18:15;;;;;;;5.67;3.27;;;;;;;;;;5071709;28;20203;-53
2023/05/27 13:20:43;;;;;;;7.93;3.90;;;;;;;;;;5071784;28;20220;-52
2023/05/27 13:23:09;;;;;;;7.67;3.43;;;;;;;;;;5072165;28;20230;-52
2023/05/27 13:25:35;;;;;;;8.33;3.47;;;;;;;;;;5072173;28;20197;-52
2023/05/27 13:28:01;;;;;;;5.30;3.13;;;;;;;;;;5072215;28;20204;-52
2023/05/27 13:30:27;;;;;;;6.87;3.23;;;;;;;;;;5072052;28;20279;-53
2023/05/27 13:32:54;;;;;;;6.13;3.50;;;;;;;;;;5072146;28;20294;-53
2023/05/27 13:35:21;;;;;;;5.47;2.97;;;;;;;;;;5072130;28;20713;-52
2023/05/27 13:37:48;;;;;;;9.77;3.33;;;;;;;;;;5072043;28;20586;-52
2023/05/27 13:40:14;;;;;;;7.70;3.60;;;;;;;;;;5072204;28;20199;-51
2023/05/27 13:42:41;;;;;;;5.70;3.30;;;;;;;;;;5072056;28;20207;-52
2023/05/27 13:45:07;;;;;;;6.03;3.40;;;;;;;;;;5072009;28;20687;-57
2023/05/27 13:47:33;;;;;;;5.53;3.00;;;;;;;;;;5071635;28;20668;-51
2023/05/27 13:49:59;;;;;;;5.73;3.30;;;;;;;;;;5071815;28;20196;-52
2023/05/27 13:52:26;;;;;;;5.63;2.97;;;;;;;;;;5071914;28;20225;-52
2023/05/27 13:54:53;;;;;;;4.43;2.77;;;;;;;;;;5071115;28;20268;-53
2023/05/27 13:57:19;;;;;;;5.43;3.10;;;;;;;;;;5071443;28;20207;-51
2023/05/27 13:59:45;;;;;;;7.17;3.37;;;;;;;;;;5071522;28;20200;-51
2023/05/27 14:02:11;;;;;;;5.77;3.27;;;;;;;;;;5071424;28;20231;-51
2023/05/27 14:04:37;;;;;;;7.80;3.07;;;;;;;;;;5071378;28;20236;-52
2023/05/27 14:07:03;;;;;;;4.77;2.93;;;;;;;;;;5065082;28;20712;-51
2023/05/27 14:09:29;;;;;;;6.10;3.20;;;;;;;;;;5071390;28;20205;-51
2023/05/27 14:11:57;;;;;;;6.60;3.27;;;;;;;;;;5071601;28;20194;-51
2023/05/27 14:14:23;;;;;;;5.30;3.73;;;;;;;;;;5071040;28;20233;-51
2023/05/27 14:16:49;;;;;;;4.73;3.10;;;;;;;;;;5069114;28;20225;-52
2023/05/27 14:19:15;;;;;;;7.30;3.37;;;;;;;;;;5069641;28;20660;-51
2023/05/27 14:21:41;;;;;;;8.50;3.37;;;;;;;;;;5071015;28;20288;-52
2023/05/27 14:24:07;;;;;;;5.20;3.40;;;;;;;;;;5069093;28;20240;-52
2023/05/27 14:26:33;;;;;;;6.00;3.37;;;;;;;;;;5071094;28;20626;-52
2023/05/27 14:29:00;;;;;;;6.43;3.63;;;;;;;;;;5070982;28;20225;-51
2023/05/27 14:31:26;;;;;;;6.37;3.20;;;;;;;;;;5076188;28;20205;-53
2023/05/27 14:33:52;;;;;;;6.57;2.93;;;;;;;;;;5077924;28;20205;-52